Pagrindinis puslapis
METAR-TAF:

METAR-TAF

Oro uostai :

Barkisimetas, Venesuela

platuma: 10-04N, ilguma: 069-19W, Aukštis: 613 m

Dabartinis oras

Ataskaita buvo paskelbta 33 minutes, ne 13:02 UTC
Vėjas 4 kt iš Pietų
Temperatūra 21°C
Drėgmė 69%
Slėgis 1019 hPa

METAR: SVBM 281302Z AUTO 17004KT NCD 21/15 Q1019

Laikas: 09:35 (13:35 UTC)

Prognozė

Ataskaita buvo paskelbta 3 valandos ir 29 minutes, ne 10:06 UTC
Prognozė galioja nuo 28 metu 12 UTC su 29 metu 12 UTC
Vėjas 8 kt iš Rytų/Pietryčių
Matomumas 10 km arba daugiau
Mažai debesys ne aukštis 1600 ft
Tapsmas
nuo 28 metu 16 UTC su 28 metu 20 UTC
Vėjas 10 kt iš Rytų
Matomumas 10 km arba daugiau
Mažai debesys ne aukštis 2000 ft
Išsisklaidę debesys ne aukštis 7000 ft

TAF: SVBM 281006Z 2812/2912 12008KT 9999 FEW016 TX33/2818Z TN21/2908Z BECMG 2816/2820 09010KT 9999 FEW020 SCT070

Orai ataskaitas ir orų prognozės (METAR, TAF).

turimą stotys yra geltonos ir raudonos taškus žemėlapyje.

Perkelti pele per norėdami pamatyti stoties vardą.

Tada spustelėkite, norėdami matyti oro stebėjimo ir prognozės.

Norėdami pakeisti žemėlapį: spustelėkite ant žalios mygtukų su juodo kryžiaus žemyn,; žalią mygtuką su brūkšneliu, jei norite nutolinti; arba žalių rodyklių gretimoms žemėlapius.


METAR-TAF: